createdAt,value
2023-05-17T00:00:24.548Z,12.20
2023-05-17T00:12:24.424Z,12.20
2023-05-17T00:24:24.493Z,12.19
2023-05-17T00:36:24.562Z,12.18
2023-05-17T00:48:24.584Z,12.17
2023-05-17T01:00:24.551Z,12.16
2023-05-17T01:12:24.500Z,12.15
2023-05-17T01:24:24.528Z,12.13
2023-05-17T01:36:24.537Z,12.12
2023-05-17T01:48:24.422Z,12.11
2023-05-17T02:00:24.451Z,12.10
2023-05-17T02:12:24.424Z,12.09
2023-05-17T02:24:24.441Z,12.07
2023-05-17T02:36:24.538Z,12.07
2023-05-17T02:48:24.502Z,12.05
2023-05-17T03:00:24.548Z,12.04
2023-05-17T03:12:24.545Z,12.03
2023-05-17T03:24:24.479Z,12.01
2023-05-17T03:36:24.450Z,12.01
2023-05-17T03:48:24.536Z,12.00
2023-05-17T04:00:24.524Z,11.99
2023-05-17T04:12:24.445Z,11.98
2023-05-17T04:24:24.520Z,11.97
2023-05-17T04:36:24.549Z,11.98
2023-05-17T04:48:24.495Z,11.97
2023-05-17T05:00:24.501Z,11.98
2023-05-17T05:12:24.426Z,11.98
2023-05-17T05:24:24.482Z,11.96
2023-05-17T05:36:24.522Z,11.96
2023-05-17T05:48:24.521Z,11.97
2023-05-17T06:00:24.423Z,11.97
2023-05-17T06:12:24.547Z,11.97
2023-05-17T06:24:25.536Z,11.97
2023-05-17T06:36:25.398Z,11.98
2023-05-17T06:48:24.624Z,12.00
2023-05-17T07:00:24.424Z,12.00
2023-05-17T07:12:24.481Z,12.00
2023-05-17T07:24:24.458Z,12.03
2023-05-17T07:36:24.593Z,12.25
2023-05-17T07:48:24.641Z,12.25
2023-05-17T08:00:24.571Z,12.26
2023-05-17T08:12:24.532Z,12.28
2023-05-17T08:24:24.434Z,12.41
2023-05-17T08:36:24.462Z,12.40
2023-05-17T08:48:24.529Z,12.46
2023-05-17T09:00:24.529Z,12.73
2023-05-17T09:12:25.838Z,12.57
2023-05-17T09:24:25.246Z,12.63
2023-05-17T09:36:24.848Z,12.75
2023-05-17T09:48:24.572Z,12.78
2023-05-17T10:00:24.515Z,12.77
2023-05-17T10:12:25.594Z,12.77
2023-05-17T10:24:24.555Z,12.76
2023-05-17T10:36:24.448Z,12.76
2023-05-17T10:48:24.606Z,12.75
2023-05-17T11:00:24.426Z,12.74
2023-05-17T11:12:24.436Z,12.80
2023-05-17T11:24:24.425Z,12.92
2023-05-17T11:36:24.723Z,12.90
2023-05-17T11:48:24.575Z,12.90
2023-05-17T12:00:24.423Z,12.89
2023-05-17T12:12:24.430Z,12.89
2023-05-17T12:24:24.508Z,12.90
2023-05-17T12:36:24.523Z,12.88
2023-05-17T12:48:24.441Z,12.88
2023-05-17T13:00:24.425Z,12.89
2023-05-17T13:12:24.673Z,12.89
2023-05-17T13:24:24.432Z,12.90
2023-05-17T13:36:24.554Z,12.90
2023-05-17T13:48:24.616Z,12.90
2023-05-17T14:00:24.433Z,12.92
2023-05-17T14:12:24.432Z,12.92
2023-05-17T14:24:24.451Z,12.91
2023-05-17T14:36:24.460Z,12.90
2023-05-17T14:48:24.594Z,12.93
2023-05-17T15:00:24.505Z,12.92
2023-05-17T15:12:24.429Z,12.92
2023-05-17T15:24:24.446Z,12.85
2023-05-17T15:36:24.428Z,12.87
2023-05-17T15:48:24.541Z,12.88
2023-05-17T16:00:24.424Z,12.87
2023-05-17T16:12:24.435Z,12.87
2023-05-17T16:24:24.429Z,12.95
2023-05-17T16:36:24.515Z,13.00
2023-05-17T16:48:24.466Z,12.17
2023-05-17T17:00:24.444Z,12.16
2023-05-17T17:12:25.540Z,12.16
2023-05-17T17:24:24.427Z,12.16
2023-05-17T17:36:24.539Z,12.16
2023-05-17T17:48:24.510Z,12.12
2023-05-17T18:00:24.538Z,12.07
2023-05-17T18:12:24.546Z,12.05
2023-05-17T18:24:24.536Z,12.03
2023-05-17T18:36:24.441Z,12.02
2023-05-17T18:48:24.427Z,12.00
2023-05-17T19:00:24.550Z,11.98
2023-05-17T19:12:24.482Z,11.97
2023-05-17T19:24:24.531Z,11.95
2023-05-17T19:36:24.524Z,11.93
2023-05-17T19:48:24.539Z,11.92
2023-05-17T20:00:24.496Z,11.91
2023-05-17T20:12:24.493Z,11.89
2023-05-17T20:24:24.574Z,11.83
2023-05-17T20:36:24.520Z,11.85
2023-05-17T20:48:24.431Z,11.83
2023-05-17T21:00:24.546Z,11.82
2023-05-17T21:12:24.548Z,11.77
2023-05-17T21:24:24.540Z,11.79
2023-05-17T21:36:24.524Z,11.77
2023-05-17T21:48:24.455Z,11.75
2023-05-17T22:00:24.428Z,12.27
2023-05-17T22:12:24.423Z,12.26
2023-05-17T22:24:24.487Z,12.25
2023-05-17T22:36:24.582Z,12.24
2023-05-17T22:48:24.430Z,12.22
2023-05-17T23:00:24.485Z,12.21
2023-05-17T23:12:24.493Z,12.20
2023-05-17T23:24:24.441Z,12.19
2023-05-17T23:36:24.434Z,12.16
2023-05-17T23:48:24.445Z,12.16
